sensor_id;sensor_type;location;lat;lon;timestamp;P1;durP1;ratioP1;P2;durP2;ratioP2
52894;SDS011;38759;53.396;6.722;2024-02-26T00:01:31;5.05;;;2.80;;
52894;SDS011;38759;53.396;6.722;2024-02-26T00:03:58;3.47;;;2.25;;
52894;SDS011;38759;53.396;6.722;2024-02-26T00:06:24;3.13;;;2.70;;
52894;SDS011;38759;53.396;6.722;2024-02-26T00:08:53;2.90;;;2.40;;
52894;SDS011;38759;53.396;6.722;2024-02-26T00:11:19;3.58;;;2.53;;
52894;SDS011;38759;53.396;6.722;2024-02-26T00:13:47;3.53;;;2.20;;
52894;SDS011;38759;53.396;6.722;2024-02-26T00:16:13;2.80;;;2.13;;
52894;SDS011;38759;53.396;6.722;2024-02-26T00:18:38;3.60;;;2.05;;
52894;SDS011;38759;53.396;6.722;2024-02-26T00:21:04;3.63;;;1.98;;
52894;SDS011;38759;53.396;6.722;2024-02-26T00:23:30;3.40;;;2.22;;
52894;SDS011;38759;53.396;6.722;2024-02-26T00:25:56;2.83;;;2.03;;
52894;SDS011;38759;53.396;6.722;2024-02-26T00:28:21;4.35;;;2.13;;
52894;SDS011;38759;53.396;6.722;2024-02-26T00:30:47;4.78;;;2.30;;
52894;SDS011;38759;53.396;6.722;2024-02-26T00:33:16;4.22;;;2.20;;
52894;SDS011;38759;53.396;6.722;2024-02-26T00:35:45;5.18;;;2.42;;
52894;SDS011;38759;53.396;6.722;2024-02-26T00:38:10;2.13;;;1.90;;
52894;SDS011;38759;53.396;6.722;2024-02-26T00:40:36;3.47;;;2.22;;
52894;SDS011;38759;53.396;6.722;2024-02-26T00:43:02;3.33;;;2.25;;
52894;SDS011;38759;53.396;6.722;2024-02-26T00:45:28;2.42;;;2.13;;
52894;SDS011;38759;53.396;6.722;2024-02-26T00:47:53;4.10;;;2.03;;
52894;SDS011;38759;53.396;6.722;2024-02-26T00:50:19;4.72;;;2.80;;
52894;SDS011;38759;53.396;6.722;2024-02-26T00:52:45;4.70;;;2.42;;
52894;SDS011;38759;53.396;6.722;2024-02-26T00:55:10;3.25;;;2.10;;
52894;SDS011;38759;53.396;6.722;2024-02-26T00:57:36;6.75;;;2.38;;
52894;SDS011;38759;53.396;6.722;2024-02-26T01:00:02;4.68;;;2.40;;
52894;SDS011;38759;53.396;6.722;2024-02-26T01:02:28;6.82;;;2.33;;
52894;SDS011;38759;53.396;6.722;2024-02-26T01:04:53;3.60;;;2.15;;
52894;SDS011;38759;53.396;6.722;2024-02-26T01:07:19;4.22;;;2.05;;
52894;SDS011;38759;53.396;6.722;2024-02-26T01:09:45;4.60;;;2.10;;
52894;SDS011;38759;53.396;6.722;2024-02-26T01:12:10;4.63;;;1.98;;
52894;SDS011;38759;53.396;6.722;2024-02-26T01:14:36;4.22;;;1.90;;
52894;SDS011;38759;53.396;6.722;2024-02-26T01:17:02;5.07;;;2.00;;
52894;SDS011;38759;53.396;6.722;2024-02-26T01:19:27;4.57;;;1.90;;
52894;SDS011;38759;53.396;6.722;2024-02-26T01:21:53;4.07;;;2.40;;
52894;SDS011;38759;53.396;6.722;2024-02-26T01:24:19;3.50;;;1.73;;
52894;SDS011;38759;53.396;6.722;2024-02-26T01:26:44;2.83;;;2.08;;
52894;SDS011;38759;53.396;6.722;2024-02-26T01:29:10;3.10;;;1.70;;
52894;SDS011;38759;53.396;6.722;2024-02-26T01:31:36;3.28;;;2.08;;
52894;SDS011;38759;53.396;6.722;2024-02-26T01:34:01;6.13;;;2.00;;
52894;SDS011;38759;53.396;6.722;2024-02-26T01:36:27;3.90;;;1.85;;
52894;SDS011;38759;53.396;6.722;2024-02-26T01:38:53;5.82;;;1.70;;
52894;SDS011;38759;53.396;6.722;2024-02-26T01:41:18;6.40;;;1.60;;
52894;SDS011;38759;53.396;6.722;2024-02-26T01:43:44;4.47;;;1.60;;
52894;SDS011;38759;53.396;6.722;2024-02-26T01:46:11;4.18;;;1.60;;
52894;SDS011;38759;53.396;6.722;2024-02-26T01:48:40;2.38;;;1.60;;
52894;SDS011;38759;53.396;6.722;2024-02-26T01:51:07;2.03;;;1.88;;
52894;SDS011;38759;53.396;6.722;2024-02-26T01:53:33;3.63;;;1.88;;
52894;SDS011;38759;53.396;6.722;2024-02-26T01:55:59;1.70;;;1.50;;
52894;SDS011;38759;53.396;6.722;2024-02-26T01:58:25;4.03;;;1.88;;
52894;SDS011;38759;53.396;6.722;2024-02-26T02:00:51;2.90;;;1.88;;
52894;SDS011;38759;53.396;6.722;2024-02-26T02:03:17;3.05;;;2.17;;
52894;SDS011;38759;53.396;6.722;2024-02-26T02:05:43;3.92;;;1.70;;
52894;SDS011;38759;53.396;6.722;2024-02-26T02:08:13;4.45;;;1.85;;
52894;SDS011;38759;53.396;6.722;2024-02-26T02:10:39;7.40;;;1.70;;
52894;SDS011;38759;53.396;6.722;2024-02-26T02:13:07;5.55;;;1.80;;
52894;SDS011;38759;53.396;6.722;2024-02-26T02:15:32;3.00;;;1.80;;
52894;SDS011;38759;53.396;6.722;2024-02-26T02:17:58;6.78;;;1.75;;
52894;SDS011;38759;53.396;6.722;2024-02-26T02:20:25;3.85;;;2.05;;
52894;SDS011;38759;53.396;6.722;2024-02-26T02:22:58;3.83;;;2.40;;
52894;SDS011;38759;53.396;6.722;2024-02-26T02:25:23;9.00;;;2.90;;
52894;SDS011;38759;53.396;6.722;2024-02-26T02:27:49;3.08;;;2.70;;
52894;SDS011;38759;53.396;6.722;2024-02-26T02:30:17;3.92;;;2.55;;
52894;SDS011;38759;53.396;6.722;2024-02-26T02:32:42;6.28;;;3.17;;
52894;SDS011;38759;53.396;6.722;2024-02-26T02:35:09;8.57;;;3.95;;
52894;SDS011;38759;53.396;6.722;2024-02-26T02:37:35;7.35;;;3.10;;
52894;SDS011;38759;53.396;6.722;2024-02-26T02:40:00;4.95;;;3.30;;
52894;SDS011;38759;53.396;6.722;2024-02-26T02:42:26;7.00;;;3.42;;
52894;SDS011;38759;53.396;6.722;2024-02-26T02:44:52;4.95;;;3.08;;
52894;SDS011;38759;53.396;6.722;2024-02-26T02:47:18;4.70;;;2.70;;
52894;SDS011;38759;53.396;6.722;2024-02-26T02:49:43;4.13;;;2.70;;
52894;SDS011;38759;53.396;6.722;2024-02-26T02:52:09;5.55;;;2.25;;
52894;SDS011;38759;53.396;6.722;2024-02-26T02:54:35;7.53;;;2.53;;
52894;SDS011;38759;53.396;6.722;2024-02-26T02:57:02;5.88;;;2.40;;
52894;SDS011;38759;53.396;6.722;2024-02-26T02:59:28;5.72;;;2.47;;
52894;SDS011;38759;53.396;6.722;2024-02-26T03:01:54;6.38;;;2.30;;
52894;SDS011;38759;53.396;6.722;2024-02-26T03:04:19;3.95;;;2.53;;
52894;SDS011;38759;53.396;6.722;2024-02-26T03:06:45;6.55;;;2.30;;
52894;SDS011;38759;53.396;6.722;2024-02-26T03:09:10;6.10;;;2.38;;
52894;SDS011;38759;53.396;6.722;2024-02-26T03:11:36;3.50;;;2.08;;
52894;SDS011;38759;53.396;6.722;2024-02-26T03:14:02;4.95;;;2.20;;
52894;SDS011;38759;53.396;6.722;2024-02-26T03:16:28;2.40;;;1.95;;
52894;SDS011;38759;53.396;6.722;2024-02-26T03:18:53;2.53;;;2.00;;
52894;SDS011;38759;53.396;6.722;2024-02-26T03:21:19;4.47;;;1.70;;
52894;SDS011;38759;53.396;6.722;2024-02-26T03:23:46;4.38;;;1.85;;
52894;SDS011;38759;53.396;6.722;2024-02-26T03:26:11;4.65;;;1.70;;
52894;SDS011;38759;53.396;6.722;2024-02-26T03:28:39;2.55;;;1.83;;
52894;SDS011;38759;53.396;6.722;2024-02-26T03:31:05;3.65;;;2.10;;
52894;SDS011;38759;53.396;6.722;2024-02-26T03:33:34;3.40;;;1.80;;
52894;SDS011;38759;53.396;6.722;2024-02-26T03:36:00;3.28;;;2.00;;
52894;SDS011;38759;53.396;6.722;2024-02-26T03:38:26;4.00;;;1.50;;
52894;SDS011;38759;53.396;6.722;2024-02-26T03:40:51;6.22;;;1.77;;
52894;SDS011;38759;53.396;6.722;2024-02-26T03:43:17;2.88;;;1.63;;
52894;SDS011;38759;53.396;6.722;2024-02-26T03:45:43;4.93;;;1.95;;
52894;SDS011;38759;53.396;6.722;2024-02-26T03:48:08;4.20;;;2.05;;
52894;SDS011;38759;53.396;6.722;2024-02-26T03:50:34;3.53;;;1.98;;
52894;SDS011;38759;53.396;6.722;2024-02-26T03:53:00;3.85;;;1.90;;
52894;SDS011;38759;53.396;6.722;2024-02-26T03:55:25;6.47;;;1.88;;
52894;SDS011;38759;53.396;6.722;2024-02-26T03:57:51;2.85;;;1.55;;
52894;SDS011;38759;53.396;6.722;2024-02-26T04:00:17;2.15;;;1.40;;
52894;SDS011;38759;53.396;6.722;2024-02-26T04:02:43;5.47;;;1.52;;
52894;SDS011;38759;53.396;6.722;2024-02-26T04:05:10;3.10;;;1.35;;
52894;SDS011;38759;53.396;6.722;2024-02-26T04:07:36;5.13;;;1.60;;
52894;SDS011;38759;53.396;6.722;2024-02-26T04:10:02;2.05;;;1.25;;
52894;SDS011;38759;53.396;6.722;2024-02-26T04:12:31;4.07;;;1.50;;
52894;SDS011;38759;53.396;6.722;2024-02-26T04:14:56;4.32;;;1.60;;
52894;SDS011;38759;53.396;6.722;2024-02-26T04:17:22;3.08;;;1.50;;
52894;SDS011;38759;53.396;6.722;2024-02-26T04:19:48;3.58;;;1.80;;
52894;SDS011;38759;53.396;6.722;2024-02-26T04:22:13;3.25;;;1.80;;
52894;SDS011;38759;53.396;6.722;2024-02-26T04:24:39;2.92;;;1.60;;
52894;SDS011;38759;53.396;6.722;2024-02-26T04:27:04;3.67;;;1.90;;
52894;SDS011;38759;53.396;6.722;2024-02-26T04:29:30;4.93;;;1.98;;
52894;SDS011;38759;53.396;6.722;2024-02-26T04:31:56;4.18;;;1.63;;
52894;SDS011;38759;53.396;6.722;2024-02-26T04:34:21;4.72;;;1.60;;
52894;SDS011;38759;53.396;6.722;2024-02-26T04:36:47;5.55;;;1.75;;
52894;SDS011;38759;53.396;6.722;2024-02-26T04:39:13;2.97;;;1.67;;
52894;SDS011;38759;53.396;6.722;2024-02-26T04:41:39;2.88;;;1.80;;
52894;SDS011;38759;53.396;6.722;2024-02-26T04:44:04;1.50;;;1.40;;
52894;SDS011;38759;53.396;6.722;2024-02-26T04:46:30;3.17;;;1.40;;
52894;SDS011;38759;53.396;6.722;2024-02-26T04:48:56;2.85;;;1.40;;
52894;SDS011;38759;53.396;6.722;2024-02-26T04:51:22;3.78;;;1.38;;
52894;SDS011;38759;53.396;6.722;2024-02-26T04:53:47;2.80;;;1.20;;
52894;SDS011;38759;53.396;6.722;2024-02-26T04:56:13;3.03;;;1.30;;
52894;SDS011;38759;53.396;6.722;2024-02-26T04:58:39;4.07;;;1.48;;
52894;SDS011;38759;53.396;6.722;2024-02-26T05:01:04;1.98;;;1.30;;
52894;SDS011;38759;53.396;6.722;2024-02-26T05:03:30;2.88;;;1.58;;
52894;SDS011;38759;53.396;6.722;2024-02-26T05:05:56;2.78;;;1.45;;
52894;SDS011;38759;53.396;6.722;2024-02-26T05:08:23;1.35;;;1.25;;
52894;SDS011;38759;53.396;6.722;2024-02-26T05:10:49;2.95;;;1.55;;
52894;SDS011;38759;53.396;6.722;2024-02-26T05:13:14;1.85;;;1.30;;
52894;SDS011;38759;53.396;6.722;2024-02-26T05:15:43;1.85;;;1.52;;
52894;SDS011;38759;53.396;6.722;2024-02-26T05:18:10;3.25;;;1.40;;
52894;SDS011;38759;53.396;6.722;2024-02-26T05:20:35;2.22;;;1.60;;
52894;SDS011;38759;53.396;6.722;2024-02-26T05:23:02;2.55;;;1.10;;
52894;SDS011;38759;53.396;6.722;2024-02-26T05:25:28;3.33;;;1.00;;
52894;SDS011;38759;53.396;6.722;2024-02-26T05:27:54;2.03;;;0.95;;
52894;SDS011;38759;53.396;6.722;2024-02-26T05:30:20;1.70;;;1.05;;
52894;SDS011;38759;53.396;6.722;2024-02-26T05:32:46;1.25;;;1.00;;
52894;SDS011;38759;53.396;6.722;2024-02-26T05:35:12;2.15;;;0.98;;
52894;SDS011;38759;53.396;6.722;2024-02-26T05:37:37;1.33;;;1.20;;
52894;SDS011;38759;53.396;6.722;2024-02-26T05:40:04;1.13;;;1.02;;
52894;SDS011;38759;53.396;6.722;2024-02-26T05:42:30;1.98;;;1.15;;
52894;SDS011;38759;53.396;6.722;2024-02-26T05:44:56;2.55;;;1.20;;
52894;SDS011;38759;53.396;6.722;2024-02-26T05:47:22;2.00;;;1.33;;
52894;SDS011;38759;53.396;6.722;2024-02-26T05:49:48;1.52;;;1.17;;
52894;SDS011;38759;53.396;6.722;2024-02-26T05:52:14;2.08;;;1.23;;
52894;SDS011;38759;53.396;6.722;2024-02-26T05:54:39;3.78;;;1.40;;
52894;SDS011;38759;53.396;6.722;2024-02-26T05:57:05;3.78;;;1.42;;
52894;SDS011;38759;53.396;6.722;2024-02-26T05:59:31;1.65;;;1.30;;
52894;SDS011;38759;53.396;6.722;2024-02-26T06:01:56;3.45;;;1.40;;
52894;SDS011;38759;53.396;6.722;2024-02-26T06:04:22;2.42;;;1.25;;
52894;SDS011;38759;53.396;6.722;2024-02-26T06:06:48;1.75;;;1.08;;
52894;SDS011;38759;53.396;6.722;2024-02-26T06:09:14;2.78;;;1.13;;
52894;SDS011;38759;53.396;6.722;2024-02-26T06:11:40;3.13;;;1.30;;
52894;SDS011;38759;53.396;6.722;2024-02-26T06:14:05;2.60;;;1.17;;
52894;SDS011;38759;53.396;6.722;2024-02-26T06:16:31;1.98;;;1.10;;
52894;SDS011;38759;53.396;6.722;2024-02-26T06:18:57;1.58;;;1.05;;
52894;SDS011;38759;53.396;6.722;2024-02-26T06:21:25;1.45;;;1.10;;
52894;SDS011;38759;53.396;6.722;2024-02-26T06:23:51;2.35;;;1.23;;
52894;SDS011;38759;53.396;6.722;2024-02-26T06:26:16;3.80;;;1.33;;
52894;SDS011;38759;53.396;6.722;2024-02-26T06:28:42;3.13;;;1.40;;
52894;SDS011;38759;53.396;6.722;2024-02-26T06:31:08;2.15;;;1.40;;
52894;SDS011;38759;53.396;6.722;2024-02-26T06:33:33;2.22;;;1.40;;
52894;SDS011;38759;53.396;6.722;2024-02-26T06:35:59;1.33;;;1.20;;
52894;SDS011;38759;53.396;6.722;2024-02-26T06:38:25;1.73;;;1.38;;
52894;SDS011;38759;53.396;6.722;2024-02-26T06:40:50;1.52;;;1.02;;
52894;SDS011;38759;53.396;6.722;2024-02-26T06:43:16;2.53;;;0.90;;
52894;SDS011;38759;53.396;6.722;2024-02-26T06:45:42;4.88;;;1.00;;
52894;SDS011;38759;53.396;6.722;2024-02-26T06:48:07;1.73;;;1.10;;
52894;SDS011;38759;53.396;6.722;2024-02-26T06:50:33;2.55;;;1.30;;
52894;SDS011;38759;53.396;6.722;2024-02-26T06:52:59;2.22;;;1.25;;
52894;SDS011;38759;53.396;6.722;2024-02-26T06:55:24;2.55;;;1.38;;
52894;SDS011;38759;53.396;6.722;2024-02-26T06:57:50;1.40;;;1.30;;
52894;SDS011;38759;53.396;6.722;2024-02-26T07:00:16;4.05;;;1.23;;
52894;SDS011;38759;53.396;6.722;2024-02-26T07:02:42;1.60;;;1.50;;
52894;SDS011;38759;53.396;6.722;2024-02-26T07:05:08;4.22;;;1.85;;
52894;SDS011;38759;53.396;6.722;2024-02-26T07:07:34;2.70;;;1.13;;
52894;SDS011;38759;53.396;6.722;2024-02-26T07:10:00;2.03;;;1.20;;
52894;SDS011;38759;53.396;6.722;2024-02-26T07:12:28;2.65;;;1.00;;
52894;SDS011;38759;53.396;6.722;2024-02-26T07:14:55;0.88;;;0.88;;
52894;SDS011;38759;53.396;6.722;2024-02-26T07:17:20;1.13;;;1.00;;
52894;SDS011;38759;53.396;6.722;2024-02-26T07:19:46;2.83;;;1.00;;
52894;SDS011;38759;53.396;6.722;2024-02-26T07:22:11;2.28;;;1.08;;
52894;SDS011;38759;53.396;6.722;2024-02-26T07:24:37;2.33;;;1.00;;
52894;SDS011;38759;53.396;6.722;2024-02-26T07:27:03;1.42;;;0.95;;
52894;SDS011;38759;53.396;6.722;2024-02-26T07:29:29;1.60;;;0.60;;
52894;SDS011;38759;53.396;6.722;2024-02-26T07:31:54;4.15;;;0.90;;
52894;SDS011;38759;53.396;6.722;2024-02-26T07:34:20;0.70;;;0.70;;
52894;SDS011;38759;53.396;6.722;2024-02-26T07:36:52;1.88;;;0.77;;
52894;SDS011;38759;53.396;6.722;2024-02-26T07:39:18;2.05;;;0.70;;
52894;SDS011;38759;53.396;6.722;2024-02-26T07:41:44;3.60;;;1.00;;
52894;SDS011;38759;53.396;6.722;2024-02-26T07:44:13;2.80;;;0.80;;
52894;SDS011;38759;53.396;6.722;2024-02-26T07:46:39;1.92;;;0.80;;
52894;SDS011;38759;53.396;6.722;2024-02-26T07:49:04;1.95;;;0.70;;
52894;SDS011;38759;53.396;6.722;2024-02-26T07:51:30;2.45;;;0.60;;
52894;SDS011;38759;53.396;6.722;2024-02-26T07:53:55;1.48;;;0.80;;
52894;SDS011;38759;53.396;6.722;2024-02-26T07:56:21;0.70;;;0.70;;
52894;SDS011;38759;53.396;6.722;2024-02-26T07:58:47;3.08;;;0.90;;
52894;SDS011;38759;53.396;6.722;2024-02-26T08:01:13;1.63;;;0.80;;
52894;SDS011;38759;53.396;6.722;2024-02-26T08:03:39;1.85;;;0.90;;
52894;SDS011;38759;53.396;6.722;2024-02-26T08:06:05;2.05;;;0.90;;
52894;SDS011;38759;53.396;6.722;2024-02-26T08:08:31;3.83;;;1.05;;
52894;SDS011;38759;53.396;6.722;2024-02-26T08:10:56;2.50;;;1.02;;
52894;SDS011;38759;53.396;6.722;2024-02-26T08:13:22;2.60;;;0.90;;
52894;SDS011;38759;53.396;6.722;2024-02-26T08:15:48;0.90;;;0.90;;
52894;SDS011;38759;53.396;6.722;2024-02-26T08:18:13;2.20;;;0.80;;
52894;SDS011;38759;53.396;6.722;2024-02-26T08:20:39;1.58;;;1.00;;
52894;SDS011;38759;53.396;6.722;2024-02-26T08:23:05;4.18;;;1.10;;
52894;SDS011;38759;53.396;6.722;2024-02-26T08:25:30;4.53;;;0.98;;
52894;SDS011;38759;53.396;6.722;2024-02-26T08:27:56;1.45;;;1.35;;
52894;SDS011;38759;53.396;6.722;2024-02-26T08:30:22;1.23;;;1.08;;
52894;SDS011;38759;53.396;6.722;2024-02-26T08:32:48;4.85;;;1.10;;
52894;SDS011;38759;53.396;6.722;2024-02-26T08:35:14;1.15;;;1.00;;
52894;SDS011;38759;53.396;6.722;2024-02-26T08:37:43;1.63;;;1.10;;
52894;SDS011;38759;53.396;6.722;2024-02-26T08:40:10;6.78;;;1.30;;
52894;SDS011;38759;53.396;6.722;2024-02-26T08:42:36;4.10;;;1.23;;
52894;SDS011;38759;53.396;6.722;2024-02-26T08:45:02;1.45;;;1.10;;
52894;SDS011;38759;53.396;6.722;2024-02-26T08:47:28;5.82;;;1.50;;
52894;SDS011;38759;53.396;6.722;2024-02-26T08:49:53;6.18;;;1.15;;
52894;SDS011;38759;53.396;6.722;2024-02-26T08:52:19;2.53;;;1.00;;
52894;SDS011;38759;53.396;6.722;2024-02-26T08:54:46;3.50;;;1.50;;
52894;SDS011;38759;53.396;6.722;2024-02-26T08:57:12;1.52;;;1.00;;
52894;SDS011;38759;53.396;6.722;2024-02-26T08:59:38;3.38;;;1.45;;
52894;SDS011;38759;53.396;6.722;2024-02-26T09:02:04;3.35;;;1.35;;
52894;SDS011;38759;53.396;6.722;2024-02-26T09:04:29;2.08;;;1.52;;
52894;SDS011;38759;53.396;6.722;2024-02-26T09:06:55;5.22;;;1.70;;
52894;SDS011;38759;53.396;6.722;2024-02-26T09:09:21;5.35;;;1.50;;
52894;SDS011;38759;53.396;6.722;2024-02-26T09:11:47;3.17;;;1.70;;
52894;SDS011;38759;53.396;6.722;2024-02-26T09:14:16;2.67;;;1.40;;
52894;SDS011;38759;53.396;6.722;2024-02-26T09:16:42;5.72;;;1.48;;
52894;SDS011;38759;53.396;6.722;2024-02-26T09:19:07;5.03;;;2.55;;
52894;SDS011;38759;53.396;6.722;2024-02-26T09:21:36;6.00;;;1.70;;
52894;SDS011;38759;53.396;6.722;2024-02-26T09:24:01;4.40;;;1.90;;
52894;SDS011;38759;53.396;6.722;2024-02-26T09:26:27;5.70;;;1.60;;
52894;SDS011;38759;53.396;6.722;2024-02-26T09:28:53;3.85;;;1.25;;
52894;SDS011;38759;53.396;6.722;2024-02-26T09:31:18;5.53;;;1.25;;
52894;SDS011;38759;53.396;6.722;2024-02-26T09:33:44;5.35;;;1.30;;
52894;SDS011;38759;53.396;6.722;2024-02-26T09:36:10;2.88;;;1.33;;
52894;SDS011;38759;53.396;6.722;2024-02-26T09:38:36;1.58;;;1.00;;
52894;SDS011;38759;53.396;6.722;2024-02-26T09:41:06;4.25;;;1.05;;
52894;SDS011;38759;53.396;6.722;2024-02-26T09:43:39;2.85;;;1.00;;
52894;SDS011;38759;53.396;6.722;2024-02-26T09:46:10;4.88;;;1.15;;
52894;SDS011;38759;53.396;6.722;2024-02-26T09:48:35;6.95;;;1.10;;
52894;SDS011;38759;53.396;6.722;2024-02-26T09:51:03;4.05;;;1.35;;
52894;SDS011;38759;53.396;6.722;2024-02-26T09:53:30;3.13;;;1.10;;
52894;SDS011;38759;53.396;6.722;2024-02-26T09:55:57;3.83;;;1.20;;
52894;SDS011;38759;53.396;6.722;2024-02-26T09:58:24;5.40;;;1.48;;
52894;SDS011;38759;53.396;6.722;2024-02-26T10:00:56;4.82;;;1.20;;
52894;SDS011;38759;53.396;6.722;2024-02-26T10:03:28;2.65;;;1.10;;
52894;SDS011;38759;53.396;6.722;2024-02-26T10:05:59;3.45;;;1.30;;
52894;SDS011;38759;53.396;6.722;2024-02-26T10:08:25;3.60;;;0.90;;
52894;SDS011;38759;53.396;6.722;2024-02-26T10:10:51;3.47;;;1.13;;
52894;SDS011;38759;53.396;6.722;2024-02-26T10:13:19;5.78;;;1.40;;
52894;SDS011;38759;53.396;6.722;2024-02-26T10:15:45;3.22;;;1.35;;
52894;SDS011;38759;53.396;6.722;2024-02-26T10:18:11;8.32;;;1.50;;
52894;SDS011;38759;53.396;6.722;2024-02-26T10:20:36;4.30;;;1.40;;
52894;SDS011;38759;53.396;6.722;2024-02-26T10:23:02;2.00;;;1.38;;
52894;SDS011;38759;53.396;6.722;2024-02-26T10:25:30;4.82;;;1.55;;
52894;SDS011;38759;53.396;6.722;2024-02-26T10:27:59;5.22;;;1.38;;
52894;SDS011;38759;53.396;6.722;2024-02-26T10:30:27;2.25;;;1.40;;
52894;SDS011;38759;53.396;6.722;2024-02-26T10:32:53;3.58;;;1.85;;
52894;SDS011;38759;53.396;6.722;2024-02-26T10:35:19;3.17;;;2.00;;
52894;SDS011;38759;53.396;6.722;2024-02-26T10:37:46;3.65;;;1.85;;
52894;SDS011;38759;53.396;6.722;2024-02-26T10:40:12;4.22;;;1.65;;
52894;SDS011;38759;53.396;6.722;2024-02-26T10:42:39;2.97;;;1.70;;
52894;SDS011;38759;53.396;6.722;2024-02-26T10:45:06;4.30;;;2.20;;
52894;SDS011;38759;53.396;6.722;2024-02-26T10:47:34;2.60;;;2.00;;
52894;SDS011;38759;53.396;6.722;2024-02-26T10:50:05;5.45;;;2.03;;
52894;SDS011;38759;53.396;6.722;2024-02-26T10:52:32;3.90;;;2.20;;
52894;SDS011;38759;53.396;6.722;2024-02-26T10:55:00;6.13;;;2.85;;
52894;SDS011;38759;53.396;6.722;2024-02-26T10:57:29;6.10;;;2.72;;
52894;SDS011;38759;53.396;6.722;2024-02-26T10:59:59;10.35;;;3.15;;
52894;SDS011;38759;53.396;6.722;2024-02-26T11:02:29;4.15;;;3.05;;
52894;SDS011;38759;53.396;6.722;2024-02-26T11:05:00;5.82;;;3.10;;
52894;SDS011;38759;53.396;6.722;2024-02-26T11:07:29;7.15;;;2.80;;
52894;SDS011;38759;53.396;6.722;2024-02-26T11:09:57;7.30;;;3.60;;
52894;SDS011;38759;53.396;6.722;2024-02-26T11:12:24;6.78;;;3.50;;
52894;SDS011;38759;53.396;6.722;2024-02-26T11:14:53;9.48;;;3.58;;
52894;SDS011;38759;53.396;6.722;2024-02-26T11:17:21;6.80;;;3.45;;
52894;SDS011;38759;53.396;6.722;2024-02-26T11:19:49;7.85;;;3.63;;
52894;SDS011;38759;53.396;6.722;2024-02-26T11:22:16;5.90;;;3.25;;
52894;SDS011;38759;53.396;6.722;2024-02-26T11:24:42;8.52;;;3.08;;
52894;SDS011;38759;53.396;6.722;2024-02-26T11:27:09;4.72;;;3.15;;
52894;SDS011;38759;53.396;6.722;2024-02-26T11:29:41;6.20;;;2.95;;
52894;SDS011;38759;53.396;6.722;2024-02-26T11:32:12;5.65;;;2.40;;
52894;SDS011;38759;53.396;6.722;2024-02-26T11:34:38;8.52;;;2.85;;
52894;SDS011;38759;53.396;6.722;2024-02-26T11:37:10;3.75;;;2.80;;
52894;SDS011;38759;53.396;6.722;2024-02-26T11:39:37;5.30;;;3.00;;
52894;SDS011;38759;53.396;6.722;2024-02-26T11:42:07;5.50;;;2.75;;
52894;SDS011;38759;53.396;6.722;2024-02-26T11:44:33;5.25;;;3.80;;
52894;SDS011;38759;53.396;6.722;2024-02-26T11:47:09;5.53;;;3.05;;
52894;SDS011;38759;53.396;6.722;2024-02-26T11:49:35;4.78;;;3.35;;
52894;SDS011;38759;53.396;6.722;2024-02-26T11:52:00;6.70;;;3.60;;
52894;SDS011;38759;53.396;6.722;2024-02-26T11:59:53;5.82;;;3.20;;
52894;SDS011;38759;53.396;6.722;2024-02-26T12:05:14;7.65;;;3.90;;
52894;SDS011;38759;53.396;6.722;2024-02-26T12:07:45;8.57;;;4.43;;
52894;SDS011;38759;53.396;6.722;2024-02-26T12:12:53;6.30;;;3.40;;
52894;SDS011;38759;53.396;6.722;2024-02-26T12:15:23;4.55;;;3.55;;
52894;SDS011;38759;53.396;6.722;2024-02-26T12:17:49;6.63;;;3.75;;
52894;SDS011;38759;53.396;6.722;2024-02-26T12:20:16;6.38;;;3.40;;
52894;SDS011;38759;53.396;6.722;2024-02-26T12:22:46;5.85;;;3.80;;
52894;SDS011;38759;53.396;6.722;2024-02-26T12:25:13;5.88;;;3.85;;
52894;SDS011;38759;53.396;6.722;2024-02-26T12:27:39;6.50;;;3.72;;
52894;SDS011;38759;53.396;6.722;2024-02-26T12:30:05;5.88;;;3.72;;
52894;SDS011;38759;53.396;6.722;2024-02-26T12:32:31;7.03;;;3.80;;
52894;SDS011;38759;53.396;6.722;2024-02-26T12:34:58;7.95;;;3.80;;
52894;SDS011;38759;53.396;6.722;2024-02-26T12:37:25;5.88;;;3.42;;
52894;SDS011;38759;53.396;6.722;2024-02-26T12:39:52;6.05;;;3.20;;
52894;SDS011;38759;53.396;6.722;2024-02-26T12:42:17;7.28;;;2.95;;
52894;SDS011;38759;53.396;6.722;2024-02-26T12:44:45;4.50;;;2.90;;
52894;SDS011;38759;53.396;6.722;2024-02-26T12:47:11;6.55;;;3.15;;
52894;SDS011;38759;53.396;6.722;2024-02-26T12:49:42;5.93;;;3.00;;
52894;SDS011;38759;53.396;6.722;2024-02-26T12:52:09;4.88;;;3.30;;
52894;SDS011;38759;53.396;6.722;2024-02-26T12:54:35;3.88;;;2.95;;
52894;SDS011;38759;53.396;6.722;2024-02-26T12:57:04;5.50;;;3.30;;
52894;SDS011;38759;53.396;6.722;2024-02-26T12:59:32;4.53;;;2.97;;
52894;SDS011;38759;53.396;6.722;2024-02-26T13:01:59;9.93;;;3.33;;
52894;SDS011;38759;53.396;6.722;2024-02-26T13:04:29;6.05;;;3.50;;
52894;SDS011;38759;53.396;6.722;2024-02-26T13:06:56;5.60;;;4.15;;
52894;SDS011;38759;53.396;6.722;2024-02-26T13:09:27;11.32;;;3.85;;
52894;SDS011;38759;53.396;6.722;2024-02-26T13:11:54;6.32;;;4.35;;
52894;SDS011;38759;53.396;6.722;2024-02-26T13:14:20;6.75;;;4.78;;
52894;SDS011;38759;53.396;6.722;2024-02-26T13:16:55;7.47;;;5.35;;
52894;SDS011;38759;53.396;6.722;2024-02-26T13:19:22;7.38;;;4.78;;
52894;SDS011;38759;53.396;6.722;2024-02-26T13:21:47;8.77;;;5.05;;
52894;SDS011;38759;53.396;6.722;2024-02-26T13:24:13;10.32;;;5.20;;
52894;SDS011;38759;53.396;6.722;2024-02-26T13:26:39;8.07;;;4.72;;
52894;SDS011;38759;53.396;6.722;2024-02-26T13:29:04;9.00;;;4.22;;
52894;SDS011;38759;53.396;6.722;2024-02-26T13:31:30;7.63;;;4.25;;
52894;SDS011;38759;53.396;6.722;2024-02-26T13:33:56;7.80;;;4.35;;
52894;SDS011;38759;53.396;6.722;2024-02-26T13:36:22;8.38;;;4.90;;
52894;SDS011;38759;53.396;6.722;2024-02-26T13:38:52;9.52;;;5.10;;
52894;SDS011;38759;53.396;6.722;2024-02-26T13:41:19;5.85;;;3.75;;
52894;SDS011;38759;53.396;6.722;2024-02-26T13:43:46;8.25;;;4.40;;
52894;SDS011;38759;53.396;6.722;2024-02-26T13:46:12;6.70;;;4.30;;
52894;SDS011;38759;53.396;6.722;2024-02-26T13:48:40;9.20;;;4.80;;
52894;SDS011;38759;53.396;6.722;2024-02-26T13:51:06;9.57;;;4.82;;
52894;SDS011;38759;53.396;6.722;2024-02-26T13:53:32;5.70;;;4.45;;
52894;SDS011;38759;53.396;6.722;2024-02-26T13:55:58;10.55;;;4.65;;
52894;SDS011;38759;53.396;6.722;2024-02-26T13:58:26;7.57;;;4.13;;
52894;SDS011;38759;53.396;6.722;2024-02-26T14:00:53;9.32;;;4.30;;
52894;SDS011;38759;53.396;6.722;2024-02-26T14:03:22;6.22;;;3.80;;
52894;SDS011;38759;53.396;6.722;2024-02-26T14:05:47;8.15;;;4.07;;
52894;SDS011;38759;53.396;6.722;2024-02-26T14:08:13;7.78;;;3.90;;
52894;SDS011;38759;53.396;6.722;2024-02-26T14:10:42;5.22;;;3.72;;
52894;SDS011;38759;53.396;6.722;2024-02-26T14:13:07;5.85;;;3.70;;
52894;SDS011;38759;53.396;6.722;2024-02-26T14:15:34;8.57;;;3.65;;
52894;SDS011;38759;53.396;6.722;2024-02-26T14:18:00;6.90;;;3.50;;
52894;SDS011;38759;53.396;6.722;2024-02-26T14:20:28;8.40;;;4.03;;
52894;SDS011;38759;53.396;6.722;2024-02-26T14:22:53;5.75;;;3.55;;
52894;SDS011;38759;53.396;6.722;2024-02-26T14:25:19;8.63;;;4.47;;
52894;SDS011;38759;53.396;6.722;2024-02-26T14:27:46;9.05;;;4.53;;
52894;SDS011;38759;53.396;6.722;2024-02-26T14:30:12;10.45;;;3.97;;
52894;SDS011;38759;53.396;6.722;2024-02-26T14:32:38;6.68;;;4.15;;
52894;SDS011;38759;53.396;6.722;2024-02-26T14:35:05;7.53;;;3.80;;
52894;SDS011;38759;53.396;6.722;2024-02-26T14:37:32;11.15;;;3.95;;
52894;SDS011;38759;53.396;6.722;2024-02-26T14:39:58;7.20;;;3.92;;
52894;SDS011;38759;53.396;6.722;2024-02-26T14:42:24;6.97;;;3.55;;
52894;SDS011;38759;53.396;6.722;2024-02-26T14:44:50;5.60;;;3.80;;
52894;SDS011;38759;53.396;6.722;2024-02-26T14:47:16;7.32;;;4.05;;
52894;SDS011;38759;53.396;6.722;2024-02-26T14:49:42;6.32;;;3.97;;
52894;SDS011;38759;53.396;6.722;2024-02-26T14:52:08;8.40;;;4.13;;
52894;SDS011;38759;53.396;6.722;2024-02-26T14:54:34;4.78;;;3.70;;